Time;durP1;ratioP1;P1;durP2;ratioP2;P2;SDS_P1;SDS_P2;PMS_P1;PMS_P2;Temp;Humidity;BMP_temperature;BMP_pressure;BME280_temperature;BME280_humidity;BME280_pressure;Samples;Min_cycle;Max_cycle;Signal;HPM_P1;HPM_P2
2021/01/24 00:01:40;;;;;;;21.50;13.57;;;1.30;93.50;;;;;;5061546;28;20107;-67
2021/01/24 00:04:06;;;;;;;20.00;13.95;;;1.30;93.50;;;;;;5065238;28;20051;-67
2021/01/24 00:06:31;;;;;;;23.95;13.90;;;1.20;93.50;;;;;;5064387;28;20443;-67
2021/01/24 00:08:57;;;;;;;23.80;14.18;;;1.20;93.60;;;;;;5057284;28;20039;-68
2021/01/24 00:11:23;;;;;;;22.52;13.90;;;1.20;93.70;;;;;;5039151;28;20674;-68
2021/01/24 00:13:49;;;;;;;22.00;14.13;;;1.30;93.80;;;;;;5025643;28;20036;-68
2021/01/24 00:16:14;;;;;;;21.50;13.73;;;1.30;93.80;;;;;;5040221;28;20104;-68
2021/01/24 00:18:40;;;;;;;24.98;14.35;;;1.40;93.70;;;;;;5039577;28;20463;-67
2021/01/24 00:21:05;;;;;;;23.00;14.32;;;1.40;93.60;;;;;;5040735;28;20116;-68
2021/01/24 00:23:31;;;;;;;20.90;12.85;;;1.40;93.50;;;;;;5039570;28;20060;-68
2021/01/24 00:25:57;;;;;;;21.98;12.68;;;1.50;93.40;;;;;;5038191;28;20033;-67
2021/01/24 00:28:24;;;;;;;21.88;13.70;;;1.50;93.30;;;;;;5038689;28;20045;-67
2021/01/24 00:30:49;;;;;;;21.38;13.63;;;1.40;93.30;;;;;;5039815;28;20069;-69
2021/01/24 00:33:15;;;;;;;20.77;13.55;;;1.40;93.30;;;;;;5040307;28;20051;-67
2021/01/24 00:35:40;;;;;;;25.08;13.85;;;1.40;93.30;;;;;;5040273;28;20028;-67
2021/01/24 00:38:06;;;;;;;21.90;14.15;;;1.50;93.30;;;;;;5040863;28;20067;-68
2021/01/24 00:40:32;;;;;;;22.92;14.05;;;1.50;93.20;;;;;;5038853;28;20029;-68
2021/01/24 00:42:57;;;;;;;23.30;15.52;;;1.50;93.20;;;;;;5038976;28;20036;-67
2021/01/24 00:45:23;;;;;;;20.80;13.20;;;1.50;93.10;;;;;;5039133;28;20032;-68
2021/01/24 00:47:48;;;;;;;24.40;14.43;;;1.50;93.00;;;;;;5039327;28;22847;-68
2021/01/24 00:50:14;;;;;;;26.58;15.18;;;1.50;93.10;;;;;;5039252;28;20106;-67
2021/01/24 00:52:39;;;;;;;22.13;13.90;;;1.40;93.00;;;;;;5038505;28;20032;-66
2021/01/24 00:55:05;;;;;;;22.25;14.95;;;1.50;93.10;;;;;;5061953;28;20112;-67
2021/01/24 00:57:31;;;;;;;24.95;15.13;;;1.40;93.10;;;;;;5085243;22;20056;-65
2021/01/24 00:59:57;;;;;;;28.33;15.05;;;1.40;93.10;;;;;;5057315;28;20613;-66
2021/01/24 01:02:22;;;;;;;20.42;13.70;;;1.30;93.20;;;;;;5044381;28;20110;-66
2021/01/24 01:04:48;;;;;;;24.88;14.73;;;1.30;93.30;;;;;;5068277;28;20032;-66
2021/01/24 01:07:13;;;;;;;25.65;16.60;;;1.30;93.30;;;;;;5067485;28;20549;-67
2021/01/24 01:09:39;;;;;;;21.75;15.13;;;1.20;93.30;;;;;;5063111;28;20551;-66
2021/01/24 01:12:05;;;;;;;27.50;15.88;;;1.20;93.40;;;;;;5069259;28;20108;-66
2021/01/24 01:14:31;;;;;;;26.58;14.63;;;1.20;93.60;;;;;;5065653;28;20104;-66
2021/01/24 01:16:56;;;;;;;26.08;15.73;;;1.10;93.50;;;;;;5068693;28;20541;-66
2021/01/24 01:19:23;;;;;;;24.77;14.85;;;1.00;93.60;;;;;;5064994;28;20057;-66
2021/01/24 01:21:48;;;;;;;29.33;16.83;;;1.00;93.80;;;;;;5060277;28;20047;-67
2021/01/24 01:24:14;;;;;;;26.60;16.90;;;0.80;93.90;;;;;;5052833;28;20385;-66
2021/01/24 01:26:40;;;;;;;29.63;17.60;;;0.80;94.10;;;;;;5048734;28;20040;-66
2021/01/24 01:29:05;;;;;;;29.38;16.20;;;0.80;94.20;;;;;;5055356;28;20439;-66
2021/01/24 01:31:31;;;;;;;25.95;16.52;;;0.70;94.20;;;;;;5065431;28;20034;-66
2021/01/24 01:33:56;;;;;;;29.75;16.52;;;0.70;94.40;;;;;;5068094;28;20489;-66
2021/01/24 01:36:22;;;;;;;30.55;17.65;;;0.70;94.40;;;;;;5068135;28;20048;-66
2021/01/24 01:38:48;;;;;;;26.85;16.50;;;0.70;94.50;;;;;;5063734;28;20026;-66
2021/01/24 01:41:13;;;;;;;30.45;17.27;;;0.70;94.60;;;;;;5065444;28;20029;-68
2021/01/24 01:43:39;;;;;;;28.85;17.17;;;0.60;94.60;;;;;;5056719;28;20033;-67
2021/01/24 01:46:05;;;;;;;32.50;18.10;;;0.60;94.60;;;;;;5060154;28;20068;-67
2021/01/24 01:48:32;;;;;;;34.60;18.25;;;0.80;94.80;;;;;;5067599;28;20102;-67
2021/01/24 01:50:58;;;;;;;30.20;18.45;;;0.80;94.80;;;;;;5069293;28;20435;-67
2021/01/24 01:53:25;;;;;;;29.35;17.85;;;0.90;94.80;;;;;;5044386;28;20028;-67
2021/01/24 01:55:50;;;;;;;34.53;18.95;;;1.00;94.70;;;;;;5067830;28;20020;-67
2021/01/24 01:58:16;;;;;;;32.63;19.00;;;1.00;94.60;;;;;;5066930;28;20094;-68
2021/01/24 02:00:42;;;;;;;31.20;18.77;;;1.00;94.50;;;;;;5059907;28;20097;-67
2021/01/24 02:03:29;;;;;;;31.38;17.58;;;1.00;94.40;;;;;;5067895;28;20030;-67
2021/01/24 02:05:59;;;;;;;31.38;17.52;;;1.10;94.30;;;;;;5057324;28;20043;-68
2021/01/24 02:08:35;;;;;;;30.63;16.58;;;1.10;94.20;;;;;;5051904;28;20090;-67
2021/01/24 02:11:16;;;;;;;31.17;17.38;;;1.10;94.20;;;;;;5052552;28;20041;-67
2021/01/24 02:13:41;;;;;;;;;;;1.00;94.10;;;;;;5059406;28;20020;-67
2021/01/24 02:16:09;;;;;;;26.48;15.52;;;1.00;94.20;;;;;;5065309;28;20383;-66
2021/01/24 02:18:38;;;;;;;31.58;17.08;;;0.90;94.20;;;;;;5069351;28;20032;-67
2021/01/24 02:21:29;;;;;;;27.50;16.02;;;0.90;94.30;;;;;;5070832;28;20111;-67
2021/01/24 02:23:59;;;;;;;28.13;17.08;;;0.70;94.20;;;;;;5058576;28;20436;-67
2021/01/24 02:26:48;;;;;;;29.48;17.45;;;0.70;94.40;;;;;;5054036;28;20040;-67
2021/01/24 02:29:39;;;;;;;31.30;17.00;;;0.60;94.60;;;;;;5070359;28;20036;-67
2021/01/24 02:32:06;;;;;;;31.73;16.85;;;0.50;94.70;;;;;;5057657;28;20427;-66
2021/01/24 02:34:35;;;;;;;34.47;18.52;;;0.60;94.90;;;;;;5060958;28;20028;-66
2021/01/24 02:37:01;;;;;;;36.97;18.83;;;0.50;95.00;;;;;;5072061;28;20052;-67
2021/01/24 02:39:28;;;;;;;32.70;17.45;;;0.50;95.00;;;;;;5070103;28;20455;-67
2021/01/24 02:41:54;;;;;;;37.20;18.05;;;0.40;95.00;;;;;;5069641;28;20036;-67
2021/01/24 02:44:20;;;;;;;37.38;19.48;;;0.40;95.10;;;;;;5068607;28;20024;-67
2021/01/24 02:46:46;;;;;;;34.33;19.33;;;0.30;95.10;;;;;;5063900;28;20443;-67
2021/01/24 02:49:13;;;;;;;37.90;20.38;;;0.30;95.20;;;;;;5066594;28;20024;-66
2021/01/24 02:51:41;;;;;;;34.80;17.92;;;0.30;95.30;;;;;;5071150;28;20473;-67
2021/01/24 02:54:07;;;;;;;34.42;19.55;;;0.30;95.40;;;;;;5068480;28;20512;-67
2021/01/24 02:56:33;;;;;;;37.53;19.38;;;0.20;95.40;;;;;;5057303;28;20025;-67
2021/01/24 02:59:00;;;;;;;43.25;21.10;;;0.20;95.50;;;;;;5058371;28;20078;-67
2021/01/24 03:01:25;;;;;;;41.88;21.33;;;0.20;95.60;;;;;;5062812;28;20017;-67
2021/01/24 03:03:51;;;;;;;40.88;20.42;;;0.20;95.70;;;;;;5069288;28;20036;-67
2021/01/24 03:06:17;;;;;;;45.90;21.13;;;0.20;95.70;;;;;;5060934;28;20029;-67
2021/01/24 03:08:43;;;;;;;40.63;20.63;;;0.20;95.80;;;;;;5064116;28;20052;-67
2021/01/24 03:11:13;;;;;;;45.40;21.98;;;0.20;95.80;;;;;;5066341;28;20028;-67
2021/01/24 03:14:04;;;;;;;45.08;21.30;;;0.20;95.80;;;;;;5067898;28;20067;-67
2021/01/24 03:16:31;;;;;;;40.70;19.45;;;0.30;95.80;;;;;;5071206;28;20029;-68
2021/01/24 03:19:00;;;;;;;44.08;18.98;;;0.30;95.80;;;;;;5068831;28;20029;-67
2021/01/24 03:21:26;;;;;;;39.45;20.48;;;0.30;95.80;;;;;;5063965;28;20044;-68
2021/01/24 03:23:53;;;;;;;38.67;19.70;;;0.40;95.80;;;;;;5059670;28;20064;-67
2021/01/24 03:26:20;;;;;;;38.80;19.90;;;0.40;95.80;;;;;;5051861;28;20024;-67
2021/01/24 03:28:47;;;;;;;38.75;19.60;;;0.40;95.70;;;;;;5067749;28;20033;-67
2021/01/24 03:31:13;;;;;;;34.05;18.88;;;0.40;95.70;;;;;;5070870;28;20028;-68
2021/01/24 03:33:39;;;;;;;32.78;19.17;;;0.40;95.70;;;;;;5070383;28;20031;-68
2021/01/24 03:36:06;;;;;;;34.83;18.42;;;0.40;95.60;;;;;;5070741;28;20021;-67
2021/01/24 03:38:32;;;;;;;29.70;18.00;;;0.40;95.60;;;;;;5063529;28;20455;-67
2021/01/24 03:40:58;;;;;;;32.65;17.85;;;0.40;95.60;;;;;;5069676;28;20024;-67
2021/01/24 03:43:23;;;;;;;28.30;17.65;;;0.40;95.60;;;;;;5068806;28;20493;-68
2021/01/24 03:45:49;;;;;;;27.88;16.95;;;0.40;95.60;;;;;;5068213;28;20029;-68
2021/01/24 03:48:14;;;;;;;33.08;17.90;;;0.40;95.60;;;;;;5053527;28;20033;-68
2021/01/24 03:50:40;;;;;;;28.35;17.77;;;0.40;95.60;;;;;;5050690;28;20039;-67
2021/01/24 03:53:05;;;;;;;31.48;17.67;;;0.40;95.60;;;;;;5050584;28;20021;-67
2021/01/24 03:55:31;;;;;;;32.53;17.83;;;0.40;95.60;;;;;;5065647;28;20051;-67
2021/01/24 03:57:57;;;;;;;34.13;17.60;;;0.40;95.60;;;;;;5065007;28;20051;-68
2021/01/24 04:00:23;;;;;;;28.27;16.98;;;0.40;95.60;;;;;;5063881;28;20060;-67
2021/01/24 04:02:48;;;;;;;30.90;17.58;;;0.50;95.70;;;;;;5061701;28;20047;-67
2021/01/24 04:05:14;;;;;;;27.02;16.52;;;0.50;95.70;;;;;;5068899;28;20032;-67
2021/01/24 04:07:39;;;;;;;30.65;17.10;;;0.50;95.70;;;;;;5064792;28;20029;-67
2021/01/24 04:10:06;;;;;;;26.60;15.55;;;0.50;95.60;;;;;;5062508;28;20119;-67
2021/01/24 04:12:32;;;;;;;32.03;17.55;;;0.50;95.60;;;;;;5070195;28;20469;-66
2021/01/24 04:14:58;;;;;;;28.67;15.93;;;0.40;95.50;;;;;;5066983;28;20082;-67
2021/01/24 04:17:23;;;;;;;24.88;15.43;;;0.40;95.40;;;;;;5066283;28;20347;-67
2021/01/24 04:19:49;;;;;;;25.95;16.30;;;0.30;95.40;;;;;;5067152;28;20039;-66
2021/01/24 04:22:14;;;;;;;27.52;15.88;;;0.20;95.30;;;;;;5069461;28;20039;-68
2021/01/24 04:24:40;;;;;;;29.83;16.08;;;0.20;95.30;;;;;;5065935;28;20060;-67
2021/01/24 04:27:06;;;;;;;31.17;17.05;;;0.20;95.40;;;;;;5058757;28;20021;-67
2021/01/24 04:29:31;;;;;;;28.48;16.13;;;0.10;95.40;;;;;;5067766;28;20504;-66
2021/01/24 04:31:57;;;;;;;27.27;16.30;;;0.10;95.50;;;;;;5066487;28;20169;-66
2021/01/24 04:34:22;;;;;;;29.60;16.05;;;0.10;95.50;;;;;;5052525;28;20021;-67
2021/01/24 04:36:48;;;;;;;33.50;16.85;;;0.10;95.50;;;;;;5065149;28;20098;-68
2021/01/24 04:39:13;;;;;;;31.40;18.00;;;0.10;95.60;;;;;;5050855;28;20033;-67
2021/01/24 04:41:39;;;;;;;37.53;18.08;;;0.10;95.70;;;;;;5065931;28;20037;-66
2021/01/24 04:44:06;;;;;;;31.30;17.85;;;0.10;95.80;;;;;;5060982;28;20052;-67
2021/01/24 04:46:32;;;;;;;34.65;18.25;;;0.20;95.80;;;;;;5051908;28;20142;-66
2021/01/24 04:49:03;;;;;;;37.60;18.55;;;0.20;95.80;;;;;;5069224;28;20013;-67
2021/01/24 04:51:28;;;;;;;31.27;17.83;;;0.20;95.80;;;;;;5064949;28;20028;-66
2021/01/24 04:53:55;;;;;;;32.78;18.38;;;0.30;95.80;;;;;;5056481;28;20017;-66
2021/01/24 04:56:21;;;;;;;31.17;18.00;;;0.20;95.70;;;;;;5066590;28;20032;-67
2021/01/24 04:58:47;;;;;;;32.17;17.08;;;0.30;95.80;;;;;;5061650;28;20396;-67
2021/01/24 05:01:16;;;;;;;30.20;16.60;;;0.30;95.80;;;;;;5066342;28;20040;-66
2021/01/24 05:03:42;;;;;;;27.90;17.17;;;0.40;95.70;;;;;;5069741;28;20576;-67
2021/01/24 05:06:08;;;;;;;26.63;16.08;;;0.40;95.70;;;;;;5066739;28;20433;-66
2021/01/24 05:08:34;;;;;;;28.95;16.67;;;0.30;95.60;;;;;;5066628;28;20125;-66
2021/01/24 05:11:07;;;;;;;29.92;16.73;;;0.20;95.40;;;;;;5068208;28;20142;-67
2021/01/24 05:13:33;;;;;;;24.85;15.93;;;0.20;95.40;;;;;;5069035;28;20096;-67
2021/01/24 05:15:59;;;;;;;28.85;17.23;;;0.10;95.40;;;;;;5054047;28;20112;-66
2021/01/24 05:18:25;;;;;;;30.67;16.73;;;0.10;95.50;;;;;;5049030;28;20027;-66
2021/01/24 05:20:52;;;;;;;31.58;16.63;;;0.20;95.60;;;;;;5060529;28;20054;-67
2021/01/24 05:23:22;;;;;;;28.60;16.13;;;0.10;95.60;;;;;;5065474;28;20112;-66
2021/01/24 05:25:48;;;;;;;28.17;16.90;;;0.10;95.60;;;;;;5058561;28;20043;-66
2021/01/24 05:28:25;;;;;;;31.10;17.25;;;0.00;95.60;;;;;;5053281;28;20055;-66
2021/01/24 05:31:02;;;;;;;35.15;18.10;;;0.10;95.80;;;;;;5067071;28;20028;-68
2021/01/24 05:33:27;;;;;;;31.27;18.60;;;0.10;95.90;;;;;;5069411;28;20024;-66
2021/01/24 05:35:53;;;;;;;32.60;17.42;;;0.00;95.80;;;;;;5063338;28;20516;-68
2021/01/24 05:38:30;;;;;;;32.20;17.98;;;0.00;95.80;;;;;;5068745;28;20022;-67
2021/01/24 05:41:09;;;;;;;36.55;19.23;;;0.00;95.80;;;;;;5054755;28;20104;-67
2021/01/24 05:43:36;;;;;;;36.67;18.70;;;0.00;95.90;;;;;;5055189;28;20025;-67
2021/01/24 05:46:03;;;;;;;34.55;18.52;;;0.10;96.00;;;;;;5065842;28;20603;-66
2021/01/24 05:48:28;;;;;;;36.63;19.13;;;0.00;96.00;;;;;;5069868;28;20052;-67
2021/01/24 05:50:55;;;;;;;35.08;18.77;;;0.00;95.90;;;;;;5061621;28;20052;-67
2021/01/24 05:53:22;;;;;;;37.80;18.65;;;0.00;96.00;;;;;;5067560;28;20020;-67
2021/01/24 05:55:48;;;;;;;33.88;19.60;;;0.00;96.00;;;;;;5067272;28;20049;-67
2021/01/24 05:58:17;;;;;;;34.47;18.15;;;0.00;95.90;;;;;;5071824;28;20520;-68
2021/01/24 06:00:43;;;;;;;30.00;18.10;;;0.00;95.90;;;;;;5059982;28;20271;-66
2021/01/24 06:03:11;;;;;;;31.45;18.60;;;0.00;95.90;;;;;;5047442;28;20037;-67
2021/01/24 06:05:37;;;;;;;32.83;18.23;;;0.00;95.90;;;;;;5057911;28;20516;-68
2021/01/24 06:08:05;;;;;;;36.28;18.85;;;0.00;96.00;;;;;;5072298;28;20070;-66
2021/01/24 06:10:30;;;;;;;39.08;19.33;;;0.00;96.00;;;;;;5068815;28;20036;-67
2021/01/24 06:12:59;;;;;;;35.03;20.13;;;-3276.70;96.00;;;;;;5064120;28;20094;-66
2021/01/24 06:15:28;;;;;;;35.38;19.13;;;-3276.70;96.00;;;;;;5068689;28;20405;-67
2021/01/24 06:17:57;;;;;;;44.42;19.95;;;-3276.70;96.10;;;;;;5066506;28;20020;-67
2021/01/24 06:20:38;;;;;;;42.35;21.23;;;-3276.60;96.10;;;;;;5065142;28;20024;-67
2021/01/24 06:23:10;;;;;;;41.45;20.65;;;-3276.60;96.20;;;;;;5051544;28;20029;-66
2021/01/24 06:25:38;;;;;;;49.58;21.70;;;-3276.60;96.20;;;;;;5064067;28;20438;-67
2021/01/24 06:28:10;;;;;;;52.63;22.45;;;-3276.70;96.30;;;;;;5069236;28;20069;-66
2021/01/24 06:30:37;;;;;;;47.00;21.92;;;-3276.70;96.30;;;;;;5066512;28;20029;-67
2021/01/24 06:33:22;;;;;;;50.47;21.98;;;-3276.70;96.40;;;;;;5071093;28;20056;-67
2021/01/24 06:36:02;;;;;;;52.75;22.48;;;-3276.70;96.40;;;;;;5070848;28;20032;-67
2021/01/24 06:38:27;;;;;;;50.75;23.13;;;0.00;96.40;;;;;;5050464;28;20120;-67
2021/01/24 06:40:53;;;;;;;51.05;23.60;;;-3276.70;96.40;;;;;;5027671;28;20029;-68
2021/01/24 06:43:40;;;;;;;52.00;23.45;;;0.00;96.50;;;;;;5026312;28;20071;-67
2021/01/24 06:46:07;;;;;;;65.55;25.23;;;0.00;96.50;;;;;;5026766;28;20025;-67
2021/01/24 06:48:47;;;;;;;57.05;25.20;;;0.00;96.60;;;;;;5028387;28;21607;-69
2021/01/24 06:51:39;;;;;;;56.80;26.10;;;0.10;96.60;;;;;;5015491;28;20489;-67
2021/01/24 06:54:28;;;;;;;56.65;24.23;;;0.10;96.60;;;;;;5025108;28;20028;-67
2021/01/24 06:57:06;;;;;;;58.17;24.13;;;0.10;96.60;;;;;;5032540;23;20183;-65
2021/01/24 06:59:32;;;;;;;55.40;23.73;;;0.20;96.60;;;;;;4984389;28;20026;-65
2021/01/24 07:02:19;;;;;;;48.53;22.77;;;0.30;96.60;;;;;;5006932;28;20060;-65
2021/01/24 07:05:07;;;;;;;46.97;22.00;;;0.30;96.60;;;;;;5008588;28;20040;-65
2021/01/24 07:07:34;;;;;;;45.95;23.30;;;0.40;96.60;;;;;;5007836;28;20704;-66
2021/01/24 07:10:02;;;;;;;48.22;23.30;;;0.40;96.50;;;;;;5009543;28;20037;-65
2021/01/24 07:12:39;;;;;;;41.28;22.23;;;0.40;96.50;;;;;;5007436;28;20052;-65
2021/01/24 07:15:10;;;;;;;46.88;20.73;;;0.40;96.40;;;;;;5006361;28;20025;-65
2021/01/24 07:17:37;;;;;;;41.42;21.60;;;0.40;96.40;;;;;;5008234;28;20109;-65
2021/01/24 07:20:05;;;;;;;39.45;20.73;;;0.40;96.40;;;;;;5008390;28;20034;-65
2021/01/24 07:22:31;;;;;;;41.33;21.20;;;0.40;96.40;;;;;;5007114;28;20034;-65
2021/01/24 07:24:57;;;;;;;36.55;19.50;;;0.50;96.40;;;;;;5005484;28;20029;-65
2021/01/24 07:27:28;;;;;;;34.25;20.70;;;0.50;96.30;;;;;;5016751;28;20032;-65
2021/01/24 07:29:54;;;;;;;36.20;21.13;;;0.50;96.20;;;;;;5014820;28;20698;-65
2021/01/24 07:32:22;;;;;;;35.15;19.17;;;0.40;96.10;;;;;;5026503;28;20108;-66
2021/01/24 07:34:50;;;;;;;31.27;18.63;;;0.40;96.10;;;;;;5025932;28;20423;-66
2021/01/24 07:37:16;;;;;;;29.38;18.05;;;0.40;96.00;;;;;;5027562;28;20419;-66
2021/01/24 07:39:47;;;;;;;32.90;20.30;;;0.40;96.00;;;;;;5019152;28;20032;-65
2021/01/24 07:42:13;;;;;;;38.47;21.08;;;0.40;96.00;;;;;;5014660;28;20038;-66
2021/01/24 07:44:40;;;;;;;30.90;20.23;;;0.40;96.00;;;;;;5023010;28;20044;-66
2021/01/24 07:47:07;;;;;;;38.58;20.50;;;0.40;96.00;;;;;;5031728;28;20038;-65
2021/01/24 07:49:33;;;;;;;35.25;19.70;;;0.50;96.00;;;;;;5028438;28;20065;-66
2021/01/24 07:51:59;;;;;;;33.30;18.73;;;0.50;96.00;;;;;;5030882;28;20464;-67
2021/01/24 07:54:24;;;;;;;30.02;18.42;;;0.50;96.00;;;;;;5034033;28;20036;-65
2021/01/24 07:56:51;;;;;;;33.30;19.27;;;0.50;96.00;;;;;;5038517;28;20044;-65
2021/01/24 07:59:17;;;;;;;31.85;18.70;;;0.50;95.90;;;;;;5029243;28;20041;-66
2021/01/24 08:01:43;;;;;;;34.33;19.58;;;0.60;95.90;;;;;;5030605;28;20521;-65
2021/01/24 08:04:09;;;;;;;29.40;17.92;;;0.60;95.90;;;;;;5043217;28;20025;-65
2021/01/24 08:06:36;;;;;;;34.45;18.90;;;0.60;95.80;;;;;;5033066;28;20117;-65
2021/01/24 08:09:07;;;;;;;30.55;18.27;;;0.60;95.80;;;;;;5026407;28;20063;-66
2021/01/24 08:11:33;;;;;;;32.42;18.35;;;0.70;95.80;;;;;;5031340;28;20053;-65
2021/01/24 08:14:00;;;;;;;28.52;18.65;;;0.70;95.80;;;;;;5010522;28;20113;-66
2021/01/24 08:16:38;;;;;;;30.23;17.40;;;0.80;95.80;;;;;;5026077;28;20060;-66
2021/01/24 08:19:06;;;;;;;37.67;19.27;;;0.80;95.80;;;;;;5023504;28;20032;-65
2021/01/24 08:21:33;;;;;;;30.05;18.15;;;0.80;95.60;;;;;;5031331;28;20402;-65
2021/01/24 08:24:01;;;;;;;30.90;18.13;;;0.90;95.50;;;;;;5018311;28;20053;-66
2021/01/24 08:26:27;;;;;;;31.45;16.88;;;0.80;95.40;;;;;;5032866;28;20025;-65
2021/01/24 08:28:53;;;;;;;28.35;17.13;;;0.90;95.40;;;;;;5023771;28;20026;-66
2021/01/24 08:31:21;;;;;;;28.40;18.17;;;0.90;95.30;;;;;;5010566;28;20426;-66
2021/01/24 08:33:48;;;;;;;31.77;18.20;;;0.90;95.20;;;;;;5026480;28;20104;-66
2021/01/24 08:36:17;;;;;;;27.55;17.55;;;0.90;95.20;;;;;;5037854;28;20021;-65
2021/01/24 08:38:43;;;;;;;28.90;17.08;;;1.00;95.10;;;;;;5032353;28;20398;-66
2021/01/24 08:41:13;;;;;;;32.60;18.67;;;1.00;95.00;;;;;;5040137;28;20034;-65
2021/01/24 08:43:40;;;;;;;28.98;17.20;;;1.00;94.90;;;;;;5032711;28;20056;-66
2021/01/24 08:46:26;;;;;;;27.40;17.17;;;1.00;94.90;;;;;;5024255;28;20104;-65
2021/01/24 08:49:02;;;;;;;28.63;16.33;;;1.00;94.80;;;;;;4999380;28;20041;-65
2021/01/24 08:51:53;;;;;;;27.50;17.48;;;1.00;94.70;;;;;;5034553;28;20029;-66
2021/01/24 08:54:22;;;;;;;29.05;17.23;;;1.10;94.70;;;;;;5034263;28;20071;-66
2021/01/24 08:56:49;;;;;;;30.35;17.52;;;1.10;94.80;;;;;;5037200;28;20087;-66
2021/01/24 08:59:25;;;;;;;29.10;16.58;;;1.20;94.60;;;;;;5017283;28;20142;-66
2021/01/24 09:01:53;;;;;;;29.08;16.52;;;1.20;94.40;;;;;;5028165;28;20438;-65
2021/01/24 09:04:33;;;;;;;27.35;16.00;;;1.20;94.20;;;;;;5028921;28;20076;-66
2021/01/24 09:07:10;;;;;;;25.30;16.13;;;1.30;94.10;;;;;;5017049;28;20034;-66
2021/01/24 09:09:44;;;;;;;25.73;16.42;;;1.30;94.20;;;;;;5017815;28;20064;-65
2021/01/24 09:12:19;;;;;;;28.95;16.30;;;1.30;94.30;;;;;;5032647;28;20025;-65
2021/01/24 09:14:45;;;;;;;27.90;17.08;;;1.40;94.20;;;;;;5027865;28;20033;-65
2021/01/24 09:17:12;;;;;;;27.23;16.27;;;1.40;93.90;;;;;;5025714;28;20028;-66
2021/01/24 09:19:40;;;;;;;26.17;15.73;;;1.40;93.80;;;;;;5025702;28;20037;-66
2021/01/24 09:22:11;;;;;;;25.17;15.90;;;1.50;93.80;;;;;;5022028;28;20021;-66
2021/01/24 09:24:37;;;;;;;26.95;17.13;;;1.60;94.00;;;;;;5020305;28;20033;-66
2021/01/24 09:27:05;;;;;;;24.02;15.57;;;1.70;94.10;;;;;;5029060;28;20296;-66
2021/01/24 09:29:32;;;;;;;25.75;16.15;;;1.80;93.90;;;;;;5019678;28;20489;-66
2021/01/24 09:31:57;;;;;;;25.23;15.85;;;1.80;93.40;;;;;;5028277;28;20029;-66
2021/01/24 09:34:23;;;;;;;24.85;15.25;;;1.90;93.30;;;;;;5030187;28;20094;-66
2021/01/24 09:36:49;;;;;;;23.30;15.50;;;2.00;92.80;;;;;;5031017;28;20034;-66
2021/01/24 09:39:14;;;;;;;22.08;14.40;;;2.00;92.40;;;;;;5027079;28;20502;-66
2021/01/24 09:41:40;;;;;;;24.52;14.35;;;2.00;92.00;;;;;;5020027;28;20026;-66
2021/01/24 09:44:06;;;;;;;22.73;14.27;;;2.10;92.10;;;;;;5033998;28;20152;-66
2021/01/24 09:46:32;;;;;;;22.17;14.23;;;2.10;92.20;;;;;;5049095;28;20032;-66
2021/01/24 09:48:58;;;;;;;18.05;12.25;;;2.20;91.70;;;;;;5026641;28;20042;-66
2021/01/24 09:51:24;;;;;;;18.95;11.57;;;2.30;91.60;;;;;;5028309;28;20285;-65
2021/01/24 09:53:50;;;;;;;17.83;11.98;;;2.40;91.30;;;;;;5018005;28;20410;-66
2021/01/24 09:56:16;;;;;;;16.27;10.82;;;2.50;91.20;;;;;;5021389;28;20194;-66
2021/01/24 09:58:42;;;;;;;15.98;10.65;;;2.60;90.90;;;;;;5028280;28;20378;-66
2021/01/24 10:01:07;;;;;;;16.95;11.23;;;2.70;90.50;;;;;;5028070;28;20035;-66
2021/01/24 10:03:33;;;;;;;16.00;10.02;;;2.80;90.10;;;;;;5024014;28;20041;-66
2021/01/24 10:05:58;;;;;;;14.23;9.48;;;2.80;89.60;;;;;;5025497;28;20026;-66
2021/01/24 10:08:24;;;;;;;14.02;9.80;;;2.90;88.30;;;;;;5007643;28;20387;-65
2021/01/24 10:10:50;;;;;;;13.60;8.80;;;2.90;88.60;;;;;;5027244;28;20065;-66
2021/01/24 10:13:15;;;;;;;15.13;8.98;;;3.00;88.70;;;;;;5018990;28;20107;-66
2021/01/24 10:15:41;;;;;;;15.45;9.77;;;3.00;87.80;;;;;;4998792;28;20113;-65
2021/01/24 10:18:07;;;;;;;13.85;8.75;;;3.00;87.60;;;;;;5025063;28;20044;-65
2021/01/24 10:20:34;;;;;;;14.60;8.93;;;3.10;88.30;;;;;;5015272;28;20029;-66
2021/01/24 10:22:59;;;;;;;15.85;9.32;;;3.10;87.30;;;;;;5021297;28;20034;-66
2021/01/24 10:25:25;;;;;;;14.18;9.02;;;3.10;87.50;;;;;;5026954;28;20043;-65
2021/01/24 10:27:51;;;;;;;13.02;8.68;;;3.10;87.30;;;;;;5023253;28;20029;-66
2021/01/24 10:30:17;;;;;;;15.73;8.93;;;3.10;86.90;;;;;;5026158;28;20128;-66
2021/01/24 10:32:43;;;;;;;12.98;8.43;;;3.20;87.20;;;;;;5029162;28;20490;-66
2021/01/24 10:35:09;;;;;;;16.08;9.23;;;3.20;86.50;;;;;;5026579;28;20028;-66
2021/01/24 10:37:35;;;;;;;14.93;9.57;;;3.30;86.80;;;;;;5032345;28;20036;-66
2021/01/24 10:40:02;;;;;;;12.98;9.48;;;3.10;86.00;;;;;;5024123;28;20029;-66
2021/01/24 10:42:27;;;;;;;14.57;8.80;;;3.20;86.30;;;;;;5024605;28;20095;-65
2021/01/24 10:44:53;;;;;;;12.65;9.00;;;3.10;86.00;;;;;;5025406;28;20030;-66
2021/01/24 10:47:19;;;;;;;12.43;8.13;;;3.30;86.00;;;;;;5028008;28;20046;-65
2021/01/24 10:49:44;;;;;;;16.10;9.32;;;3.30;86.30;;;;;;5026490;28;20028;-66
2021/01/24 10:52:10;;;;;;;13.85;9.00;;;3.30;86.00;;;;;;5034434;28;20041;-65
2021/01/24 10:54:37;;;;;;;13.60;8.50;;;3.40;86.30;;;;;;5029044;28;20068;-66
2021/01/24 10:57:03;;;;;;;12.00;8.50;;;3.40;85.30;;;;;;5031381;28;20025;-66
2021/01/24 10:59:29;;;;;;;14.20;8.85;;;3.50;85.80;;;;;;5019135;28;20391;-66
2021/01/24 11:01:54;;;;;;;15.25;9.13;;;3.50;85.30;;;;;;5020425;28;20029;-65
2021/01/24 11:04:20;;;;;;;14.48;8.73;;;3.50;85.50;;;;;;5021453;28;20024;-66
2021/01/24 11:06:46;;;;;;;13.35;8.40;;;3.60;85.40;;;;;;5027779;28;20020;-66
2021/01/24 11:09:12;;;;;;;13.18;7.68;;;3.60;85.70;;;;;;5023544;28;20406;-66
2021/01/24 11:11:37;;;;;;;11.68;7.75;;;3.70;85.10;;;;;;5027167;28;20063;-66
2021/01/24 11:14:03;;;;;;;14.35;8.43;;;3.60;85.20;;;;;;5028974;28;20034;-67
2021/01/24 11:16:28;;;;;;;13.60;8.05;;;3.80;85.40;;;;;;5021368;28;20014;-65
2021/01/24 11:18:54;;;;;;;10.35;7.25;;;3.80;85.20;;;;;;5021359;28;20086;-65
2021/01/24 11:21:19;;;;;;;12.60;7.53;;;3.70;84.60;;;;;;5023467;28;20025;-66
2021/01/24 11:23:45;;;;;;;10.70;7.22;;;3.90;85.00;;;;;;5019500;28;20455;-66
2021/01/24 11:26:11;;;;;;;12.45;7.18;;;4.00;84.50;;;;;;5020737;28;20108;-66
2021/01/24 11:28:36;;;;;;;11.70;7.97;;;3.90;83.60;;;;;;5017974;28;20403;-66
2021/01/24 11:31:02;;;;;;;11.90;8.32;;;4.00;84.10;;;;;;5020523;28;20079;-66
2021/01/24 11:33:28;;;;;;;12.05;7.38;;;4.10;84.50;;;;;;5025947;28;20025;-66
2021/01/24 11:35:53;;;;;;;11.02;7.45;;;4.10;83.70;;;;;;5027786;28;20556;-66
2021/01/24 11:38:19;;;;;;;12.25;7.68;;;4.00;83.50;;;;;;5023873;28;20035;-66
2021/01/24 11:40:44;;;;;;;13.52;7.72;;;4.10;83.60;;;;;;5026716;28;20065;-66
2021/01/24 11:43:10;;;;;;;12.52;8.23;;;4.10;84.20;;;;;;5028090;28;20502;-66
2021/01/24 11:45:36;;;;;;;12.27;8.07;;;4.10;83.30;;;;;;5019572;28;20030;-67
2021/01/24 11:48:02;;;;;;;11.45;7.45;;;4.10;83.90;;;;;;5017218;28;20037;-66
2021/01/24 11:50:27;;;;;;;12.23;7.72;;;4.20;84.20;;;;;;5020497;28;20104;-66
2021/01/24 11:52:53;;;;;;;10.05;7.55;;;4.30;84.10;;;;;;5025525;28;20129;-66
2021/01/24 11:55:18;;;;;;;13.55;8.07;;;4.10;82.70;;;;;;5025753;28;20025;-66
2021/01/24 11:57:44;;;;;;;11.18;7.60;;;4.20;83.40;;;;;;5019855;28;20056;-65
2021/01/24 12:00:10;;;;;;;12.50;8.25;;;4.10;82.60;;;;;;5022435;28;20033;-66
2021/01/24 12:02:36;;;;;;;10.85;7.75;;;4.10;83.20;;;;;;5026812;28;20440;-67
2021/01/24 12:05:01;;;;;;;14.00;8.00;;;4.10;83.60;;;;;;5028389;28;20057;-66
2021/01/24 12:07:27;;;;;;;10.98;7.90;;;4.00;83.60;;;;;;5025725;28;20037;-65
2021/01/24 12:09:53;;;;;;;13.23;8.32;;;4.00;84.00;;;;;;5018503;28;20061;-65
2021/01/24 12:12:19;;;;;;;11.77;8.32;;;4.10;84.00;;;;;;5014042;28;20408;-66
2021/01/24 12:14:44;;;;;;;11.48;7.82;;;4.20;84.10;;;;;;5019583;28;20082;-66
2021/01/24 12:17:10;;;;;;;14.82;8.35;;;4.10;83.60;;;;;;5029983;28;20022;-66
2021/01/24 12:19:36;;;;;;;12.68;8.18;;;4.10;84.20;;;;;;5022014;28;20116;-66
2021/01/24 12:22:01;;;;;;;11.55;7.65;;;4.10;83.70;;;;;;5016828;28;20094;-66
2021/01/24 12:24:27;;;;;;;12.60;8.25;;;4.10;83.50;;;;;;5016165;28;20036;-65
2021/01/24 12:26:52;;;;;;;14.02;8.23;;;4.20;84.40;;;;;;5028117;28;20021;-66
2021/01/24 12:29:18;;;;;;;12.93;8.52;;;4.10;84.10;;;;;;5027935;28;20022;-66
2021/01/24 12:31:44;;;;;;;12.40;8.40;;;4.00;84.10;;;;;;5025630;28;20498;-66
2021/01/24 12:34:11;;;;;;;14.82;8.52;;;3.80;84.80;;;;;;5017222;28;20433;-66
2021/01/24 12:36:37;;;;;;;12.88;8.80;;;3.70;84.80;;;;;;5026485;28;20017;-65
2021/01/24 12:39:03;;;;;;;14.90;8.88;;;3.80;85.40;;;;;;5026831;28;20033;-66
2021/01/24 12:41:29;;;;;;;13.20;8.98;;;3.80;85.00;;;;;;5026179;28;20021;-66